sensor_id;sensor_type;location;lat;lon;timestamp;pressure;altitude;pressure_sealevel;temperature;humidity
71907;BME280;59781;52.090;5.030;2023-06-22T00:01:58;101957.69;;;18.10;100.00
71907;BME280;59781;52.090;5.030;2023-06-22T00:04:24;101961.47;;;17.94;100.00
71907;BME280;59781;52.090;5.030;2023-06-22T00:06:50;101959.16;;;17.91;100.00
71907;BME280;59781;52.090;5.030;2023-06-22T00:09:16;101961.78;;;17.84;100.00
71907;BME280;59781;52.090;5.030;2023-06-22T00:11:42;101967.69;;;17.88;100.00
71907;BME280;59781;52.090;5.030;2023-06-22T00:14:07;101963.88;;;17.82;100.00
71907;BME280;59781;52.090;5.030;2023-06-22T00:16:33;101970.69;;;17.93;100.00
71907;BME280;59781;52.090;5.030;2023-06-22T00:19:00;101958.03;;;18.06;100.00
71907;BME280;59781;52.090;5.030;2023-06-22T00:21:27;101960.84;;;17.92;100.00
71907;BME280;59781;52.090;5.030;2023-06-22T00:23:53;101954.44;;;17.85;100.00
71907;BME280;59781;52.090;5.030;2023-06-22T00:26:19;101950.03;;;17.84;100.00
71907;BME280;59781;52.090;5.030;2023-06-22T00:28:45;101951.78;;;17.70;100.00
71907;BME280;59781;52.090;5.030;2023-06-22T00:31:10;101950.91;;;17.69;100.00
71907;BME280;59781;52.090;5.030;2023-06-22T00:33:36;101941.31;;;17.59;100.00
71907;BME280;59781;52.090;5.030;2023-06-22T00:36:05;101945.00;;;17.51;100.00
71907;BME280;59781;52.090;5.030;2023-06-22T00:38:33;101943.22;;;17.29;100.00
71907;BME280;59781;52.090;5.030;2023-06-22T00:41:00;101946.97;;;17.28;100.00
71907;BME280;59781;52.090;5.030;2023-06-22T00:43:26;101935.53;;;17.32;100.00
71907;BME280;59781;52.090;5.030;2023-06-22T00:45:52;101938.25;;;17.32;100.00
71907;BME280;59781;52.090;5.030;2023-06-22T00:48:18;101944.16;;;17.36;100.00
71907;BME280;59781;52.090;5.030;2023-06-22T00:50:47;101943.72;;;17.32;100.00
71907;BME280;59781;52.090;5.030;2023-06-22T00:53:16;101931.59;;;17.35;100.00
71907;BME280;59781;52.090;5.030;2023-06-22T00:55:44;101927.72;;;17.29;100.00
71907;BME280;59781;52.090;5.030;2023-06-22T00:58:12;101932.06;;;17.24;100.00
71907;BME280;59781;52.090;5.030;2023-06-22T01:00:40;101930.38;;;17.23;100.00
71907;BME280;59781;52.090;5.030;2023-06-22T01:03:07;101935.63;;;17.09;100.00
71907;BME280;59781;52.090;5.030;2023-06-22T01:05:37;101934.31;;;17.05;100.00
71907;BME280;59781;52.090;5.030;2023-06-22T01:11:00;101925.22;;;17.13;100.00
71907;BME280;59781;52.090;5.030;2023-06-22T01:16:30;101927.94;;;17.13;100.00
71907;BME280;59781;52.090;5.030;2023-06-22T01:19:09;101926.31;;;16.89;100.00
71907;BME280;59781;52.090;5.030;2023-06-22T01:21:58;101928.69;;;16.92;100.00
71907;BME280;59781;52.090;5.030;2023-06-22T01:27:58;101932.28;;;16.70;100.00
71907;BME280;59781;52.090;5.030;2023-06-22T01:30:32;101933.44;;;16.90;100.00
71907;BME280;59781;52.090;5.030;2023-06-22T01:33:02;101935.50;;;16.88;100.00
71907;BME280;59781;52.090;5.030;2023-06-22T01:35:31;101933.44;;;16.75;100.00
71907;BME280;59781;52.090;5.030;2023-06-22T01:38:00;101923.81;;;16.64;100.00
71907;BME280;59781;52.090;5.030;2023-06-22T01:40:28;101936.03;;;16.69;100.00
71907;BME280;59781;52.090;5.030;2023-06-22T01:42:55;101931.56;;;16.76;100.00
71907;BME280;59781;52.090;5.030;2023-06-22T01:45:21;101927.66;;;16.55;100.00
71907;BME280;59781;52.090;5.030;2023-06-22T01:47:49;101930.19;;;16.57;100.00
71907;BME280;59781;52.090;5.030;2023-06-22T01:50:15;101924.63;;;16.50;100.00
71907;BME280;59781;52.090;5.030;2023-06-22T01:52:41;101922.22;;;16.55;100.00
71907;BME280;59781;52.090;5.030;2023-06-22T01:55:07;101922.31;;;16.62;100.00
71907;BME280;59781;52.090;5.030;2023-06-22T01:57:33;101931.13;;;16.64;100.00
71907;BME280;59781;52.090;5.030;2023-06-22T02:00:03;101931.78;;;16.66;100.00
71907;BME280;59781;52.090;5.030;2023-06-22T02:02:53;101933.22;;;16.62;100.00
71907;BME280;59781;52.090;5.030;2023-06-22T02:05:19;101925.16;;;16.69;100.00
71907;BME280;59781;52.090;5.030;2023-06-22T02:08:07;101924.34;;;16.83;100.00
71907;BME280;59781;52.090;5.030;2023-06-22T02:10:38;101918.41;;;16.79;100.00
71907;BME280;59781;52.090;5.030;2023-06-22T02:13:09;101919.00;;;16.89;100.00
71907;BME280;59781;52.090;5.030;2023-06-22T02:15:37;101924.25;;;16.91;100.00
71907;BME280;59781;52.090;5.030;2023-06-22T02:18:03;101921.84;;;16.81;100.00
71907;BME280;59781;52.090;5.030;2023-06-22T02:20:30;101914.31;;;16.98;100.00
71907;BME280;59781;52.090;5.030;2023-06-22T02:22:56;101899.88;;;17.12;100.00
71907;BME280;59781;52.090;5.030;2023-06-22T02:25:22;101898.56;;;16.94;100.00
71907;BME280;59781;52.090;5.030;2023-06-22T02:27:47;101908.22;;;16.81;100.00
71907;BME280;59781;52.090;5.030;2023-06-22T02:30:15;101904.75;;;16.73;100.00
71907;BME280;59781;52.090;5.030;2023-06-22T02:32:42;101905.84;;;16.78;100.00
71907;BME280;59781;52.090;5.030;2023-06-22T02:35:11;101902.31;;;16.92;100.00
71907;BME280;59781;52.090;5.030;2023-06-22T02:37:38;101902.59;;;16.83;100.00
71907;BME280;59781;52.090;5.030;2023-06-22T02:40:07;101897.63;;;16.86;100.00
71907;BME280;59781;52.090;5.030;2023-06-22T02:42:35;101900.78;;;16.75;100.00
71907;BME280;59781;52.090;5.030;2023-06-22T02:45:01;101905.41;;;16.75;100.00
71907;BME280;59781;52.090;5.030;2023-06-22T02:47:27;101897.25;;;16.52;100.00
71907;BME280;59781;52.090;5.030;2023-06-22T02:49:53;101907.28;;;16.51;100.00
71907;BME280;59781;52.090;5.030;2023-06-22T02:52:19;101913.59;;;16.52;100.00
71907;BME280;59781;52.090;5.030;2023-06-22T02:54:45;101914.69;;;16.57;100.00
71907;BME280;59781;52.090;5.030;2023-06-22T02:57:11;101919.50;;;16.55;100.00
71907;BME280;59781;52.090;5.030;2023-06-22T02:59:40;101915.66;;;16.64;100.00
71907;BME280;59781;52.090;5.030;2023-06-22T03:02:09;101913.66;;;16.44;100.00
71907;BME280;59781;52.090;5.030;2023-06-22T03:04:35;101915.09;;;16.31;100.00
71907;BME280;59781;52.090;5.030;2023-06-22T03:07:02;101914.94;;;16.33;100.00
71907;BME280;59781;52.090;5.030;2023-06-22T03:09:29;101916.50;;;16.27;100.00
71907;BME280;59781;52.090;5.030;2023-06-22T03:11:56;101920.25;;;16.26;100.00
71907;BME280;59781;52.090;5.030;2023-06-22T03:14:25;101905.44;;;16.29;100.00
71907;BME280;59781;52.090;5.030;2023-06-22T03:16:52;101912.09;;;16.26;100.00
71907;BME280;59781;52.090;5.030;2023-06-22T03:19:18;101910.28;;;16.19;100.00
71907;BME280;59781;52.090;5.030;2023-06-22T03:21:45;101911.91;;;16.28;100.00
71907;BME280;59781;52.090;5.030;2023-06-22T03:24:10;101909.56;;;16.25;100.00
71907;BME280;59781;52.090;5.030;2023-06-22T03:26:37;101898.81;;;16.09;100.00
71907;BME280;59781;52.090;5.030;2023-06-22T03:29:03;101898.75;;;16.17;100.00
71907;BME280;59781;52.090;5.030;2023-06-22T03:31:30;101906.06;;;16.16;100.00
71907;BME280;59781;52.090;5.030;2023-06-22T03:33:56;101888.13;;;16.07;100.00
71907;BME280;59781;52.090;5.030;2023-06-22T03:36:22;101887.94;;;16.09;100.00
71907;BME280;59781;52.090;5.030;2023-06-22T03:38:50;101888.19;;;15.99;100.00
71907;BME280;59781;52.090;5.030;2023-06-22T03:41:17;101894.41;;;16.08;100.00
71907;BME280;59781;52.090;5.030;2023-06-22T03:43:43;101896.69;;;16.19;100.00
71907;BME280;59781;52.090;5.030;2023-06-22T03:46:09;101888.13;;;16.07;100.00
71907;BME280;59781;52.090;5.030;2023-06-22T03:48:34;101881.97;;;16.13;100.00
71907;BME280;59781;52.090;5.030;2023-06-22T03:51:01;101881.66;;;16.08;100.00
71907;BME280;59781;52.090;5.030;2023-06-22T03:53:29;101875.84;;;16.11;100.00
71907;BME280;59781;52.090;5.030;2023-06-22T03:55:55;101879.31;;;16.05;100.00
71907;BME280;59781;52.090;5.030;2023-06-22T03:58:21;101883.59;;;16.22;100.00
71907;BME280;59781;52.090;5.030;2023-06-22T04:00:49;101881.16;;;16.27;100.00
71907;BME280;59781;52.090;5.030;2023-06-22T04:03:16;101887.16;;;16.23;100.00
71907;BME280;59781;52.090;5.030;2023-06-22T04:05:44;101885.19;;;16.31;100.00
71907;BME280;59781;52.090;5.030;2023-06-22T04:08:12;101884.72;;;16.28;100.00
71907;BME280;59781;52.090;5.030;2023-06-22T04:10:39;101873.53;;;16.46;100.00
71907;BME280;59781;52.090;5.030;2023-06-22T04:13:05;101873.00;;;16.65;100.00
71907;BME280;59781;52.090;5.030;2023-06-22T04:15:30;101866.81;;;16.71;100.00
71907;BME280;59781;52.090;5.030;2023-06-22T04:17:56;101868.59;;;16.79;100.00
71907;BME280;59781;52.090;5.030;2023-06-22T04:20:23;101860.66;;;16.92;100.00
71907;BME280;59781;52.090;5.030;2023-06-22T04:22:54;101864.41;;;17.06;100.00
71907;BME280;59781;52.090;5.030;2023-06-22T04:25:20;101866.19;;;17.13;100.00
71907;BME280;59781;52.090;5.030;2023-06-22T04:27:47;101860.16;;;17.33;100.00
71907;BME280;59781;52.090;5.030;2023-06-22T04:30:13;101854.75;;;17.39;100.00
71907;BME280;59781;52.090;5.030;2023-06-22T04:32:44;101866.16;;;17.28;100.00
71907;BME280;59781;52.090;5.030;2023-06-22T04:35:11;101864.94;;;17.31;100.00
71907;BME280;59781;52.090;5.030;2023-06-22T04:37:37;101855.44;;;17.77;100.00
71907;BME280;59781;52.090;5.030;2023-06-22T04:40:05;101873.28;;;17.80;100.00
71907;BME280;59781;52.090;5.030;2023-06-22T04:42:34;101869.44;;;17.96;100.00
71907;BME280;59781;52.090;5.030;2023-06-22T04:45:01;101871.31;;;18.17;100.00
71907;BME280;59781;52.090;5.030;2023-06-22T04:47:26;101859.31;;;18.60;100.00
71907;BME280;59781;52.090;5.030;2023-06-22T04:49:52;101854.88;;;18.87;100.00
71907;BME280;59781;52.090;5.030;2023-06-22T04:52:18;101867.16;;;19.05;100.00
71907;BME280;59781;52.090;5.030;2023-06-22T04:54:45;101857.66;;;18.94;100.00
71907;BME280;59781;52.090;5.030;2023-06-22T04:57:21;101858.34;;;19.03;100.00
71907;BME280;59781;52.090;5.030;2023-06-22T04:59:50;101857.69;;;19.01;100.00
71907;BME280;59781;52.090;5.030;2023-06-22T05:02:15;101861.97;;;19.16;100.00
71907;BME280;59781;52.090;5.030;2023-06-22T05:04:41;101851.13;;;19.36;100.00
71907;BME280;59781;52.090;5.030;2023-06-22T05:07:07;101846.78;;;19.48;100.00
71907;BME280;59781;52.090;5.030;2023-06-22T05:09:33;101838.94;;;19.32;100.00
71907;BME280;59781;52.090;5.030;2023-06-22T05:11:59;101835.78;;;19.35;100.00
71907;BME280;59781;52.090;5.030;2023-06-22T05:14:27;101837.91;;;19.46;100.00
71907;BME280;59781;52.090;5.030;2023-06-22T05:16:54;101837.63;;;19.83;100.00
71907;BME280;59781;52.090;5.030;2023-06-22T05:19:24;101849.00;;;19.99;100.00
71907;BME280;59781;52.090;5.030;2023-06-22T05:21:56;101844.16;;;19.88;100.00
71907;BME280;59781;52.090;5.030;2023-06-22T05:24:22;101843.25;;;19.61;100.00
71907;BME280;59781;52.090;5.030;2023-06-22T05:26:48;101839.94;;;20.05;100.00
71907;BME280;59781;52.090;5.030;2023-06-22T05:29:13;101840.59;;;20.08;100.00
71907;BME280;59781;52.090;5.030;2023-06-22T05:31:39;101850.88;;;20.25;100.00
71907;BME280;59781;52.090;5.030;2023-06-22T05:34:06;101841.84;;;20.65;100.00
71907;BME280;59781;52.090;5.030;2023-06-22T05:36:31;101837.66;;;20.55;100.00
71907;BME280;59781;52.090;5.030;2023-06-22T05:38:57;101839.59;;;21.13;100.00
71907;BME280;59781;52.090;5.030;2023-06-22T05:41:23;101837.63;;;20.62;100.00
71907;BME280;59781;52.090;5.030;2023-06-22T05:43:49;101844.25;;;21.64;100.00
71907;BME280;59781;52.090;5.030;2023-06-22T05:46:15;101842.16;;;21.91;100.00
71907;BME280;59781;52.090;5.030;2023-06-22T05:48:42;101852.69;;;21.11;100.00
71907;BME280;59781;52.090;5.030;2023-06-22T05:51:07;101846.19;;;21.05;100.00
71907;BME280;59781;52.090;5.030;2023-06-22T05:53:33;101843.91;;;20.89;100.00
71907;BME280;59781;52.090;5.030;2023-06-22T05:55:59;101841.44;;;20.68;100.00
71907;BME280;59781;52.090;5.030;2023-06-22T05:58:24;101850.03;;;20.71;100.00
71907;BME280;59781;52.090;5.030;2023-06-22T06:00:50;101836.50;;;20.96;100.00
71907;BME280;59781;52.090;5.030;2023-06-22T06:03:16;101834.50;;;21.68;100.00
71907;BME280;59781;52.090;5.030;2023-06-22T06:05:43;101844.03;;;21.97;100.00
71907;BME280;59781;52.090;5.030;2023-06-22T06:08:10;101841.44;;;22.09;100.00
71907;BME280;59781;52.090;5.030;2023-06-22T06:10:37;101836.75;;;22.84;100.00
71907;BME280;59781;52.090;5.030;2023-06-22T06:13:03;101832.47;;;22.45;100.00
71907;BME280;59781;52.090;5.030;2023-06-22T06:15:30;101829.28;;;22.23;100.00
71907;BME280;59781;52.090;5.030;2023-06-22T06:17:57;101830.56;;;22.20;100.00
71907;BME280;59781;52.090;5.030;2023-06-22T06:20:26;101825.88;;;22.27;100.00
71907;BME280;59781;52.090;5.030;2023-06-22T06:22:53;101821.22;;;22.28;100.00
71907;BME280;59781;52.090;5.030;2023-06-22T06:25:19;101817.53;;;22.77;100.00
71907;BME280;59781;52.090;5.030;2023-06-22T06:27:48;101806.66;;;22.89;100.00
71907;BME280;59781;52.090;5.030;2023-06-22T06:30:17;101817.66;;;23.07;100.00
71907;BME280;59781;52.090;5.030;2023-06-22T06:32:45;101819.91;;;22.55;100.00
71907;BME280;59781;52.090;5.030;2023-06-22T06:35:13;101810.56;;;22.81;100.00
71907;BME280;59781;52.090;5.030;2023-06-22T06:37:43;101812.94;;;22.96;100.00
71907;BME280;59781;52.090;5.030;2023-06-22T06:40:12;101810.84;;;23.10;100.00
71907;BME280;59781;52.090;5.030;2023-06-22T06:42:39;101807.72;;;23.06;100.00
71907;BME280;59781;52.090;5.030;2023-06-22T06:45:22;101801.91;;;23.33;100.00
71907;BME280;59781;52.090;5.030;2023-06-22T06:47:50;101795.56;;;23.62;100.00
71907;BME280;59781;52.090;5.030;2023-06-22T06:50:17;101793.88;;;23.31;100.00
71907;BME280;59781;52.090;5.030;2023-06-22T06:52:44;101786.88;;;23.89;100.00
71907;BME280;59781;52.090;5.030;2023-06-22T06:55:10;101800.84;;;24.29;100.00
71907;BME280;59781;52.090;5.030;2023-06-22T06:57:41;101793.53;;;25.22;100.00
71907;BME280;59781;52.090;5.030;2023-06-22T07:00:12;101799.69;;;25.00;100.00
71907;BME280;59781;52.090;5.030;2023-06-22T07:02:39;101792.03;;;25.02;100.00
71907;BME280;59781;52.090;5.030;2023-06-22T07:05:07;101791.22;;;25.02;100.00
71907;BME280;59781;52.090;5.030;2023-06-22T07:07:34;101792.50;;;24.99;100.00
71907;BME280;59781;52.090;5.030;2023-06-22T07:10:00;101791.06;;;24.97;100.00
71907;BME280;59781;52.090;5.030;2023-06-22T07:12:27;101793.66;;;24.51;100.00
71907;BME280;59781;52.090;5.030;2023-06-22T07:14:52;101782.13;;;24.89;100.00
71907;BME280;59781;52.090;5.030;2023-06-22T07:17:19;101782.75;;;25.20;100.00
71907;BME280;59781;52.090;5.030;2023-06-22T07:19:45;101779.34;;;25.58;100.00
71907;BME280;59781;52.090;5.030;2023-06-22T07:22:11;101781.13;;;25.36;100.00
71907;BME280;59781;52.090;5.030;2023-06-22T07:24:36;101779.16;;;26.27;100.00
71907;BME280;59781;52.090;5.030;2023-06-22T07:27:03;101776.91;;;25.90;100.00
71907;BME280;59781;52.090;5.030;2023-06-22T07:29:29;101776.72;;;26.47;100.00
71907;BME280;59781;52.090;5.030;2023-06-22T07:31:54;101776.03;;;26.23;100.00
71907;BME280;59781;52.090;5.030;2023-06-22T07:34:22;101777.97;;;26.23;100.00
71907;BME280;59781;52.090;5.030;2023-06-22T07:36:48;101770.50;;;26.57;100.00
71907;BME280;59781;52.090;5.030;2023-06-22T07:39:13;101769.38;;;27.46;100.00
71907;BME280;59781;52.090;5.030;2023-06-22T07:41:40;101776.34;;;26.61;100.00
71907;BME280;59781;52.090;5.030;2023-06-22T07:44:06;101775.47;;;26.38;100.00
71907;BME280;59781;52.090;5.030;2023-06-22T07:46:33;101764.19;;;26.06;100.00
71907;BME280;59781;52.090;5.030;2023-06-22T07:48:59;101764.53;;;27.09;100.00
71907;BME280;59781;52.090;5.030;2023-06-22T07:51:25;101756.81;;;27.65;100.00
71907;BME280;59781;52.090;5.030;2023-06-22T07:53:51;101756.84;;;27.38;100.00
71907;BME280;59781;52.090;5.030;2023-06-22T07:56:17;101750.06;;;27.24;100.00
71907;BME280;59781;52.090;5.030;2023-06-22T07:58:46;101750.63;;;26.82;100.00
71907;BME280;59781;52.090;5.030;2023-06-22T08:01:13;101752.38;;;27.10;100.00
71907;BME280;59781;52.090;5.030;2023-06-22T08:03:39;101743.84;;;27.38;100.00
71907;BME280;59781;52.090;5.030;2023-06-22T08:06:05;101744.78;;;27.00;100.00
71907;BME280;59781;52.090;5.030;2023-06-22T08:08:31;101738.41;;;27.00;100.00
71907;BME280;59781;52.090;5.030;2023-06-22T08:10:57;101730.78;;;27.93;100.00
71907;BME280;59781;52.090;5.030;2023-06-22T08:13:23;101733.06;;;27.42;100.00
71907;BME280;59781;52.090;5.030;2023-06-22T08:15:49;101726.09;;;27.34;94.64
71907;BME280;59781;52.090;5.030;2023-06-22T08:18:15;101730.56;;;27.67;96.36
71907;BME280;59781;52.090;5.030;2023-06-22T08:20:42;101718.75;;;27.50;92.79
71907;BME280;59781;52.090;5.030;2023-06-22T08:23:08;101716.47;;;28.06;93.91
71907;BME280;59781;52.090;5.030;2023-06-22T08:25:34;101704.09;;;28.19;91.46
71907;BME280;59781;52.090;5.030;2023-06-22T08:28:03;101696.59;;;28.14;88.58
71907;BME280;59781;52.090;5.030;2023-06-22T08:30:29;101702.44;;;28.75;89.47
71907;BME280;59781;52.090;5.030;2023-06-22T08:32:55;101699.00;;;29.21;87.08
71907;BME280;59781;52.090;5.030;2023-06-22T08:35:22;101708.75;;;28.55;85.25
71907;BME280;59781;52.090;5.030;2023-06-22T08:37:48;101704.50;;;28.38;89.87
71907;BME280;59781;52.090;5.030;2023-06-22T08:40:22;101705.38;;;29.11;82.88
71907;BME280;59781;52.090;5.030;2023-06-22T08:42:48;101694.84;;;29.43;77.73
71907;BME280;59781;52.090;5.030;2023-06-22T08:45:15;101689.81;;;28.37;83.66
71907;BME280;59781;52.090;5.030;2023-06-22T08:47:41;101689.06;;;27.67;84.66
71907;BME280;59781;52.090;5.030;2023-06-22T08:50:11;101690.47;;;27.43;89.09
71907;BME280;59781;52.090;5.030;2023-06-22T08:52:39;101689.56;;;26.83;94.81
71907;BME280;59781;52.090;5.030;2023-06-22T08:55:09;101700.47;;;27.17;87.53
71907;BME280;59781;52.090;5.030;2023-06-22T08:57:35;101706.97;;;26.84;93.65
71907;BME280;59781;52.090;5.030;2023-06-22T09:00:08;101698.78;;;26.07;98.55
71907;BME280;59781;52.090;5.030;2023-06-22T09:02:42;101707.63;;;25.92;100.00
71907;BME280;59781;52.090;5.030;2023-06-22T09:05:08;101700.88;;;25.83;100.00
71907;BME280;59781;52.090;5.030;2023-06-22T09:07:34;101703.13;;;25.86;100.00
71907;BME280;59781;52.090;5.030;2023-06-22T09:10:00;101700.34;;;25.86;100.00
71907;BME280;59781;52.090;5.030;2023-06-22T09:12:26;101694.09;;;25.73;100.00
71907;BME280;59781;52.090;5.030;2023-06-22T09:14:53;101683.63;;;26.31;100.00
71907;BME280;59781;52.090;5.030;2023-06-22T09:17:19;101687.47;;;26.47;100.00
71907;BME280;59781;52.090;5.030;2023-06-22T09:19:44;101690.03;;;26.53;100.00
71907;BME280;59781;52.090;5.030;2023-06-22T09:22:10;101686.84;;;26.23;100.00
71907;BME280;59781;52.090;5.030;2023-06-22T09:24:36;101683.16;;;26.78;100.00
71907;BME280;59781;52.090;5.030;2023-06-22T09:27:02;101687.53;;;26.52;100.00
71907;BME280;59781;52.090;5.030;2023-06-22T09:29:28;101682.34;;;26.55;100.00
71907;BME280;59781;52.090;5.030;2023-06-22T09:31:53;101693.53;;;26.27;100.00
71907;BME280;59781;52.090;5.030;2023-06-22T09:34:20;101691.63;;;26.11;100.00
71907;BME280;59781;52.090;5.030;2023-06-22T09:36:46;101694.28;;;26.39;100.00
71907;BME280;59781;52.090;5.030;2023-06-22T09:39:12;101693.03;;;26.13;100.00
71907;BME280;59781;52.090;5.030;2023-06-22T09:41:38;101694.63;;;26.65;100.00
71907;BME280;59781;52.090;5.030;2023-06-22T09:44:04;101686.34;;;26.26;100.00
71907;BME280;59781;52.090;5.030;2023-06-22T09:46:30;101684.81;;;26.35;100.00
71907;BME280;59781;52.090;5.030;2023-06-22T09:48:55;101686.06;;;26.06;100.00
71907;BME280;59781;52.090;5.030;2023-06-22T09:51:22;101684.06;;;26.40;100.00
71907;BME280;59781;52.090;5.030;2023-06-22T09:53:52;101676.47;;;26.52;100.00
71907;BME280;59781;52.090;5.030;2023-06-22T09:56:21;101681.72;;;26.31;100.00
71907;BME280;59781;52.090;5.030;2023-06-22T09:58:47;101675.47;;;26.19;100.00
71907;BME280;59781;52.090;5.030;2023-06-22T10:01:13;101664.75;;;26.23;100.00
71907;BME280;59781;52.090;5.030;2023-06-22T10:03:42;101672.66;;;26.36;100.00
71907;BME280;59781;52.090;5.030;2023-06-22T10:06:08;101674.19;;;26.27;100.00
71907;BME280;59781;52.090;5.030;2023-06-22T10:08:37;101668.06;;;26.03;100.00
71907;BME280;59781;52.090;5.030;2023-06-22T10:11:03;101669.72;;;26.04;100.00
71907;BME280;59781;52.090;5.030;2023-06-22T10:13:29;101676.16;;;26.10;100.00
71907;BME280;59781;52.090;5.030;2023-06-22T10:15:55;101678.63;;;25.89;100.00
71907;BME280;59781;52.090;5.030;2023-06-22T10:18:21;101679.81;;;26.15;100.00
71907;BME280;59781;52.090;5.030;2023-06-22T10:20:48;101674.28;;;25.60;100.00
71907;BME280;59781;52.090;5.030;2023-06-22T10:23:19;101676.91;;;26.05;100.00
71907;BME280;59781;52.090;5.030;2023-06-22T10:25:45;101672.25;;;26.06;96.72
71907;BME280;59781;52.090;5.030;2023-06-22T10:28:11;101680.88;;;25.92;100.00
71907;BME280;59781;52.090;5.030;2023-06-22T10:30:39;101677.63;;;25.79;100.00
71907;BME280;59781;52.090;5.030;2023-06-22T10:33:07;101673.69;;;25.91;100.00
71907;BME280;59781;52.090;5.030;2023-06-22T10:35:34;101677.16;;;26.64;97.40
71907;BME280;59781;52.090;5.030;2023-06-22T10:38:00;101681.28;;;26.01;100.00
71907;BME280;59781;52.090;5.030;2023-06-22T10:40:26;101678.50;;;25.34;100.00
71907;BME280;59781;52.090;5.030;2023-06-22T10:42:51;101683.69;;;25.30;100.00
71907;BME280;59781;52.090;5.030;2023-06-22T10:45:17;101692.09;;;24.95;100.00
71907;BME280;59781;52.090;5.030;2023-06-22T10:47:43;101690.63;;;25.33;100.00
71907;BME280;59781;52.090;5.030;2023-06-22T10:50:09;101683.88;;;25.40;100.00
71907;BME280;59781;52.090;5.030;2023-06-22T10:52:35;101682.59;;;25.31;100.00
71907;BME280;59781;52.090;5.030;2023-06-22T10:55:00;101685.72;;;25.52;100.00
71907;BME280;59781;52.090;5.030;2023-06-22T10:57:26;101675.75;;;25.34;100.00
71907;BME280;59781;52.090;5.030;2023-06-22T10:59:52;101684.13;;;25.39;100.00
71907;BME280;59781;52.090;5.030;2023-06-22T11:02:17;101691.69;;;25.77;100.00
71907;BME280;59781;52.090;5.030;2023-06-22T11:04:43;101686.97;;;25.27;100.00
71907;BME280;59781;52.090;5.030;2023-06-22T11:07:09;101686.28;;;25.54;100.00
71907;BME280;59781;52.090;5.030;2023-06-22T11:09:35;101688.16;;;25.48;100.00
71907;BME280;59781;52.090;5.030;2023-06-22T11:12:01;101686.44;;;25.30;100.00
71907;BME280;59781;52.090;5.030;2023-06-22T11:14:26;101685.09;;;25.33;100.00
71907;BME280;59781;52.090;5.030;2023-06-22T11:16:52;101679.84;;;25.31;100.00
71907;BME280;59781;52.090;5.030;2023-06-22T11:19:18;101685.91;;;25.16;100.00
71907;BME280;59781;52.090;5.030;2023-06-22T11:21:44;101690.38;;;25.17;100.00
71907;BME280;59781;52.090;5.030;2023-06-22T11:24:10;101686.34;;;24.97;100.00
71907;BME280;59781;52.090;5.030;2023-06-22T11:26:36;101688.25;;;25.25;100.00
71907;BME280;59781;52.090;5.030;2023-06-22T11:29:02;101682.50;;;25.26;100.00
71907;BME280;59781;52.090;5.030;2023-06-22T11:31:31;101686.56;;;24.78;100.00
71907;BME280;59781;52.090;5.030;2023-06-22T11:33:57;101685.97;;;25.05;100.00
71907;BME280;59781;52.090;5.030;2023-06-22T11:36:23;101680.06;;;25.13;100.00
71907;BME280;59781;52.090;5.030;2023-06-22T11:38:50;101682.22;;;24.82;100.00
71907;BME280;59781;52.090;5.030;2023-06-22T11:41:16;101679.44;;;24.54;100.00
71907;BME280;59781;52.090;5.030;2023-06-22T11:43:42;101659.50;;;25.04;100.00
71907;BME280;59781;52.090;5.030;2023-06-22T11:46:08;101661.00;;;24.83;100.00
71907;BME280;59781;52.090;5.030;2023-06-22T11:48:34;101659.72;;;24.74;100.00
71907;BME280;59781;52.090;5.030;2023-06-22T11:50:59;101653.84;;;24.42;100.00
71907;BME280;59781;52.090;5.030;2023-06-22T11:53:27;101652.75;;;24.43;100.00
71907;BME280;59781;52.090;5.030;2023-06-22T11:55:53;101644.78;;;24.70;100.00
71907;BME280;59781;52.090;5.030;2023-06-22T11:58:19;101634.44;;;24.37;100.00
71907;BME280;59781;52.090;5.030;2023-06-22T12:00:45;101632.06;;;24.40;100.00
71907;BME280;59781;52.090;5.030;2023-06-22T12:03:11;101631.63;;;24.60;100.00
71907;BME280;59781;52.090;5.030;2023-06-22T12:05:38;101634.44;;;24.77;100.00
71907;BME280;59781;52.090;5.030;2023-06-22T12:08:04;101629.75;;;24.77;100.00
71907;BME280;59781;52.090;5.030;2023-06-22T12:10:30;101622.09;;;25.08;100.00
71907;BME280;59781;52.090;5.030;2023-06-22T12:12:56;101622.28;;;24.89;100.00
71907;BME280;59781;52.090;5.030;2023-06-22T12:15:26;101613.97;;;24.73;100.00
71907;BME280;59781;52.090;5.030;2023-06-22T12:17:52;101621.91;;;24.69;100.00
71907;BME280;59781;52.090;5.030;2023-06-22T12:20:18;101613.97;;;24.73;100.00
71907;BME280;59781;52.090;5.030;2023-06-22T12:22:44;101615.38;;;24.47;100.00
71907;BME280;59781;52.090;5.030;2023-06-22T12:25:10;101614.22;;;24.43;100.00
71907;BME280;59781;52.090;5.030;2023-06-22T12:27:37;101614.50;;;24.86;100.00
71907;BME280;59781;52.090;5.030;2023-06-22T12:30:04;101612.88;;;24.74;100.00
71907;BME280;59781;52.090;5.030;2023-06-22T12:32:30;101624.00;;;24.50;100.00
71907;BME280;59781;52.090;5.030;2023-06-22T12:34:56;101624.28;;;24.25;100.00
71907;BME280;59781;52.090;5.030;2023-06-22T12:37:23;101621.69;;;24.19;100.00
71907;BME280;59781;52.090;5.030;2023-06-22T12:39:49;101616.44;;;23.94;100.00
71907;BME280;59781;52.090;5.030;2023-06-22T12:42:15;101614.75;;;23.69;100.00
71907;BME280;59781;52.090;5.030;2023-06-22T12:44:42;101618.00;;;23.66;100.00
71907;BME280;59781;52.090;5.030;2023-06-22T12:47:09;101606.03;;;23.84;100.00
71907;BME280;59781;52.090;5.030;2023-06-22T12:49:35;101603.88;;;23.86;100.00